Beersheba, Israel
Current Conditions -  °F | °C
As of 1:20 PM on Sunday 21 Dec 2014 (Local Time) from LLBG Reporting Station
Light Rain Light Rain  
Wind Chill: 16°   Ceiling: Unl
Heat Index: 16°   Visibility: 6mi
Dew Point: 12°   Wind: 5mph
Humidity: 77%   Direction: 230°SW
Pressure: 30.12"   Gusts: NA
Location:  31.25°N, 34.8°E
Report Text: LLBG 211020Z 23004KT 9999 -RA SCT033 16/12 Q1020 NOSIG RMKBKN070
Loading
Personal Weather Stations






























Interactive Weather Map New forecast layout! Learn more

10-Day Weather Forecast

Advertisements
Track Severe Weather on mobile